Time;durP1;ratioP1;P1;durP2;ratioP2;P2;SDS_P1;SDS_P2;PMS_P1;PMS_P2;Temp;Humidity;BMP_temperature;BMP_pressure;BME280_temperature;BME280_humidity;BME280_pressure;Samples;Min_cycle;Max_cycle;Signal;HPM_P1;HPM_P2
2022/01/05 00:00:07;;;;;;;;;;;;;;;5.63;100.00;97990.02;1684992;83;20477;-79
2022/01/05 00:02:33;;;;;;;;;;;;;;;5.62;100.00;97984.45;1702873;83;20165;-78
2022/01/05 00:04:59;;;;;;;;;;;;;;;5.65;100.00;97988.02;1684896;83;20540;-74
2022/01/05 00:07:24;;;;;;;;;;;;;;;5.66;100.00;97984.42;1689387;83;21099;-75
2022/01/05 00:09:50;;;;;;;;;;;;;;;5.60;100.00;97993.49;1691424;83;20131;-76
2022/01/05 00:12:15;;;;;;;;;;;;;;;5.51;100.00;98009.75;1694824;83;20615;-76
2022/01/05 00:14:41;;;;;;;;;;;;;;;5.54;100.00;98002.86;1696391;83;20132;-78
2022/01/05 00:17:07;;;;;;;;;;;;;;;5.49;100.00;98015.67;1694275;83;20549;-76
2022/01/05 00:19:34;;;;;;;;;;;;;;;5.43;100.00;98017.18;1702457;83;21317;-78
2022/01/05 00:22:01;;;;;;;;;;;;;;;5.51;100.00;98021.53;1697713;83;20237;-81
2022/01/05 00:24:27;;;;;;;;;;;;;;;5.44;100.00;98019.29;1696264;83;20176;-76
2022/01/05 00:26:52;;;;;;;;;;;;;;;5.48;100.00;98025.31;1696916;82;20158;-77
2022/01/05 00:29:18;;;;;;;;;;;;;;;5.36;100.00;98017.08;1703334;83;20182;-76
2022/01/05 00:31:44;;;;;;;;;;;;;;;5.48;100.00;98020.07;1706504;83;21171;-76
2022/01/05 00:34:09;;;;;;;;;;;;;;;5.52;100.00;98016.63;1699734;82;20139;-77
2022/01/05 00:36:35;;;;;;;;;;;;;;;5.52;100.00;98025.80;1714099;83;20187;-77
2022/01/05 00:39:00;;;;;;;;;;;;;;;5.51;100.00;98026.27;1710955;83;20135;-75
2022/01/05 00:41:26;;;;;;;;;;;;;;;5.47;100.00;98031.55;1716297;83;20155;-75
2022/01/05 00:43:51;;;;;;;;;;;;;;;5.53;100.00;98022.16;1713019;83;21169;-75
2022/01/05 00:46:17;;;;;;;;;;;;;;;5.48;100.00;98027.13;1709478;83;21075;-75
2022/01/05 00:48:43;;;;;;;;;;;;;;;5.48;100.00;98037.59;1709701;83;20167;-76
2022/01/05 00:51:09;;;;;;;;;;;;;;;5.47;100.00;98041.19;1703921;83;20111;-76
2022/01/05 00:53:35;;;;;;;;;;;;;;;5.52;100.00;98041.50;1712890;82;20184;-75
2022/01/05 00:56:01;;;;;;;;;;;;;;;5.51;100.00;98042.48;1704533;83;21221;-77
2022/01/05 00:58:27;;;;;;;;;;;;;;;5.39;100.00;98053.84;1706576;83;20203;-77
2022/01/05 01:00:52;;;;;;;;;;;;;;;5.46;100.00;98057.91;1701644;82;20658;-76
2022/01/05 01:03:18;;;;;;;;;;;;;;;5.49;100.00;98053.12;1707321;83;20143;-75
2022/01/05 01:05:44;;;;;;;;;;;;;;;5.45;100.00;98057.07;1702480;83;20733;-78
2022/01/05 01:08:10;;;;;;;;;;;;;;;5.58;100.00;98045.53;1706554;83;21176;-77
2022/01/05 01:10:36;;;;;;;;;;;;;;;5.64;100.00;98042.71;1716953;83;20219;-80
2022/01/05 01:13:01;;;;;;;;;;;;;;;5.51;100.00;98049.02;1706859;83;20261;-75
2022/01/05 01:15:27;;;;;;;;;;;;;;;5.53;100.00;98045.73;1700439;83;20453;-75
2022/01/05 01:17:52;;;;;;;;;;;;;;;5.51;100.00;98050.33;1702811;83;20155;-75
2022/01/05 01:20:20;;;;;;;;;;;;;;;5.53;100.00;98053.58;1715788;82;21170;-75
2022/01/05 01:22:45;;;;;;;;;;;;;;;5.56;100.00;98055.84;1701799;83;20219;-75
2022/01/05 01:25:11;;;;;;;;;;;;;;;5.57;100.00;98049.63;1707382;83;20285;-75
2022/01/05 01:27:40;;;;;;;;;;;;;;;5.61;100.00;98061.39;1699048;83;20171;-75
2022/01/05 01:30:04;;;;;;;;;;;;;;;5.58;100.00;98069.59;1699691;83;20552;-76
2022/01/05 01:32:30;;;;;;;;;;;;;;;5.51;100.00;98068.66;1704064;83;21065;-78
2022/01/05 01:34:56;;;;;;;;;;;;;;;5.54;100.00;98076.16;1704437;83;20144;-76
2022/01/05 01:37:21;;;;;;;;;;;;;;;5.47;100.00;98083.08;1704207;83;20167;-75
2022/01/05 01:39:47;;;;;;;;;;;;;;;5.48;100.00;98085.52;1699421;83;20143;-77
2022/01/05 01:42:12;;;;;;;;;;;;;;;5.53;100.00;98091.54;1701259;83;20176;-75
2022/01/05 01:44:38;;;;;;;;;;;;;;;5.51;100.00;98102.69;1703520;83;21100;-75
2022/01/05 01:47:04;;;;;;;;;;;;;;;5.52;100.00;98105.64;1699050;83;20481;-76
2022/01/05 01:49:29;;;;;;;;;;;;;;;5.47;100.00;98099.62;1704575;83;20180;-78
2022/01/05 01:51:55;;;;;;;;;;;;;;;5.45;100.00;98099.45;1694411;83;20976;-77
2022/01/05 01:54:21;;;;;;;;;;;;;;;5.54;100.00;98103.66;1688974;83;20250;-76
2022/01/05 01:56:46;;;;;;;;;;;;;;;5.60;100.00;98108.19;1693872;83;21148;-76
2022/01/05 01:59:12;;;;;;;;;;;;;;;5.69;100.00;98112.38;1700082;83;20176;-75
2022/01/05 02:01:40;;;;;;;;;;;;;;;5.66;100.00;98119.78;1695040;83;20128;-76
2022/01/05 02:04:05;;;;;;;;;;;;;;;5.74;100.00;98111.34;1690162;83;20305;-76
2022/01/05 02:06:31;;;;;;;;;;;;;;;5.71;100.00;98113.01;1700830;83;20459;-76
2022/01/05 02:08:58;;;;;;;;;;;;;;;5.65;100.00;98113.70;1704680;83;21318;-76
2022/01/05 02:11:25;;;;;;;;;;;;;;;5.71;100.00;98122.67;1696061;83;20317;-77
2022/01/05 02:13:51;;;;;;;;;;;;;;;5.73;100.00;98107.12;1699117;83;20200;-75
2022/01/05 02:16:21;;;;;;;;;;;;;;;5.72;100.00;98112.53;1701639;83;20125;-76
2022/01/05 02:18:59;;;;;;;;;;;;;;;5.79;100.00;98125.73;1701087;83;20176;-76
2022/01/05 02:21:30;;;;;;;;;;;;;;;5.75;100.00;98124.77;1692555;83;21986;-75
2022/01/05 02:23:56;;;;;;;;;;;;;;;5.77;100.00;98112.81;1695177;83;20120;-76
2022/01/05 02:26:21;;;;;;;;;;;;;;;5.82;100.00;98114.91;1690460;83;21327;-75
2022/01/05 02:28:47;;;;;;;;;;;;;;;5.82;100.00;98120.14;1696357;83;20211;-75
2022/01/05 02:31:12;;;;;;;;;;;;;;;5.86;100.00;98118.81;1707622;82;20810;-75
2022/01/05 02:33:40;;;;;;;;;;;;;;;5.95;100.00;98115.14;1704390;83;21107;-76
2022/01/05 02:36:08;;;;;;;;;;;;;;;6.00;100.00;98121.99;1709675;83;20136;-75
2022/01/05 02:38:35;;;;;;;;;;;;;;;5.94;100.00;98113.50;1704513;83;20600;-77
2022/01/05 02:41:06;;;;;;;;;;;;;;;5.95;100.00;98113.83;1713553;82;20316;-76
2022/01/05 02:43:32;;;;;;;;;;;;;;;5.98;100.00;98126.60;1708318;82;20532;-76
2022/01/05 02:45:58;;;;;;;;;;;;;;;6.07;100.00;98129.95;1701717;83;21143;-76
2022/01/05 02:48:23;;;;;;;;;;;;;;;6.11;100.00;98134.66;1713680;83;20478;-75
2022/01/05 02:50:49;;;;;;;;;;;;;;;6.14;100.00;98141.84;1700991;83;20124;-78
2022/01/05 02:53:14;;;;;;;;;;;;;;;6.23;100.00;98138.98;1708681;83;20171;-76
2022/01/05 02:55:40;;;;;;;;;;;;;;;6.18;100.00;98144.44;1702761;83;20575;-76
2022/01/05 02:58:06;;;;;;;;;;;;;;;6.13;100.00;98139.72;1705094;83;21372;-76
2022/01/05 03:00:31;;;;;;;;;;;;;;;6.24;100.00;98150.28;1700755;83;20217;-77
2022/01/05 03:02:57;;;;;;;;;;;;;;;6.18;100.00;98140.50;1704137;83;20222;-75
2022/01/05 03:05:23;;;;;;;;;;;;;;;6.10;100.00;98147.43;1707039;83;20155;-75
2022/01/05 03:07:48;;;;;;;;;;;;;;;6.30;100.00;98149.56;1697996;83;20168;-80
2022/01/05 03:10:14;;;;;;;;;;;;;;;6.09;100.00;98151.06;1699491;83;21145;-76
2022/01/05 03:12:40;;;;;;;;;;;;;;;6.05;100.00;98139.30;1709470;83;20496;-78
2022/01/05 03:15:07;;;;;;;;;;;;;;;6.21;100.00;98151.44;1700306;82;20215;-76
2022/01/05 03:17:32;;;;;;;;;;;;;;;6.23;100.00;98152.56;1696904;83;20201;-76
2022/01/05 03:19:58;;;;;;;;;;;;;;;6.29;100.00;98145.30;1693692;83;20812;-81
2022/01/05 03:22:23;;;;;;;;;;;;;;;6.19;100.00;98152.12;1706518;83;20908;-76
2022/01/05 03:24:49;;;;;;;;;;;;;;;6.30;100.00;98146.95;1698303;83;21172;-76
2022/01/05 03:27:15;;;;;;;;;;;;;;;6.28;100.00;98150.25;1704421;83;20165;-75
2022/01/05 03:29:40;;;;;;;;;;;;;;;6.28;100.00;98152.88;1700443;83;20486;-77
2022/01/05 03:32:07;;;;;;;;;;;;;;;6.36;100.00;98146.23;1691833;83;20168;-75
2022/01/05 03:34:33;;;;;;;;;;;;;;;6.35;100.00;98151.66;1688932;83;21983;-76
2022/01/05 03:37:00;;;;;;;;;;;;;;;6.33;100.00;98153.65;1691004;83;20217;-76
2022/01/05 03:39:26;;;;;;;;;;;;;;;6.36;100.00;98147.55;1694285;83;20127;-76
2022/01/05 03:41:51;;;;;;;;;;;;;;;6.39;100.00;98141.95;1688583;83;20214;-76
2022/01/05 03:44:17;;;;;;;;;;;;;;;6.41;100.00;98136.52;1696911;83;20506;-75
2022/01/05 03:46:42;;;;;;;;;;;;;;;6.38;100.00;98131.13;1695091;83;20966;-76
2022/01/05 03:49:08;;;;;;;;;;;;;;;6.53;100.00;98122.48;1693896;83;20592;-76
2022/01/05 03:51:33;;;;;;;;;;;;;;;6.61;100.00;98123.70;1699180;83;20176;-76
2022/01/05 03:53:59;;;;;;;;;;;;;;;6.60;100.00;98123.38;1692441;83;20141;-76
2022/01/05 03:56:25;;;;;;;;;;;;;;;6.64;100.00;98137.77;1700138;83;20143;-77
2022/01/05 03:58:50;;;;;;;;;;;;;;;6.82;100.00;98140.84;1682483;83;21043;-76
2022/01/05 04:01:16;;;;;;;;;;;;;;;6.72;100.00;98138.97;1687827;83;20263;-75
2022/01/05 04:03:42;;;;;;;;;;;;;;;6.71;100.00;98138.68;1689273;83;20158;-76
2022/01/05 04:06:07;;;;;;;;;;;;;;;6.76;100.00;98157.30;1693847;83;20482;-76
2022/01/05 04:08:33;;;;;;;;;;;;;;;6.80;100.00;98146.74;1686183;83;20176;-81
2022/01/05 04:10:58;;;;;;;;;;;;;;;6.70;100.00;98147.53;1689365;83;21080;-77
2022/01/05 04:13:24;;;;;;;;;;;;;;;6.77;100.00;98140.55;1691717;83;20472;-76
2022/01/05 04:15:49;;;;;;;;;;;;;;;6.84;100.00;98148.53;1688564;83;20465;-76
2022/01/05 04:18:15;;;;;;;;;;;;;;;6.69;100.00;98154.27;1688111;83;20172;-75
2022/01/05 04:20:41;;;;;;;;;;;;;;;6.83;100.00;98145.06;1668617;83;20183;-75
2022/01/05 04:23:06;;;;;;;;;;;;;;;6.78;100.00;98150.05;1694440;83;21152;-76
2022/01/05 04:25:33;;;;;;;;;;;;;;;6.70;100.00;98160.64;1689493;83;20442;-77
2022/01/05 04:28:02;;;;;;;;;;;;;;;6.74;100.00;98150.13;1696371;83;21016;-76
2022/01/05 04:30:28;;;;;;;;;;;;;;;6.53;100.00;98149.52;1667114;83;20222;-75
2022/01/05 04:32:54;;;;;;;;;;;;;;;6.60;100.00;98145.19;1657283;86;20270;-76
2022/01/05 04:35:20;;;;;;;;;;;;;;;6.63;100.00;98140.06;1661328;85;21108;-75
2022/01/05 04:37:45;;;;;;;;;;;;;;;6.65;100.00;98147.27;1659912;85;20190;-76
2022/01/05 04:40:11;;;;;;;;;;;;;;;6.72;100.00;98156.02;1650074;86;20141;-77
2022/01/05 04:42:38;;;;;;;;;;;;;;;6.71;100.00;98157.04;1651663;85;20204;-76
2022/01/05 04:45:04;;;;;;;;;;;;;;;6.66;100.00;98172.48;1650074;85;20174;-75
2022/01/05 04:47:30;;;;;;;;;;;;;;;6.69;100.00;98176.05;1648235;85;21310;-77
2022/01/05 04:49:56;;;;;;;;;;;;;;;6.80;100.00;98176.91;1647737;86;20188;-76
2022/01/05 04:52:21;;;;;;;;;;;;;;;6.71;100.00;98158.83;1648042;86;20204;-76
2022/01/05 04:54:47;;;;;;;;;;;;;;;6.90;100.00;98159.61;1652191;86;20142;-76
2022/01/05 04:57:16;;;;;;;;;;;;;;;6.82;100.00;98159.20;1649913;85;20538;-75
2022/01/05 04:59:42;;;;;;;;;;;;;;;6.94;100.00;98174.48;1647078;86;21238;-75
2022/01/05 05:02:08;;;;;;;;;;;;;;;6.80;100.00;98166.42;1650909;86;20186;-76
2022/01/05 05:04:34;;;;;;;;;;;;;;;6.85;100.00;98168.50;1655564;85;20213;-76
2022/01/05 05:07:00;;;;;;;;;;;;;;;6.73;100.00;98166.84;1652526;85;20166;-76
2022/01/05 05:09:25;;;;;;;;;;;;;;;6.71;100.00;98162.28;1656856;86;21202;-75
2022/01/05 05:11:52;;;;;;;;;;;;;;;6.76;100.00;98165.17;1657551;86;21162;-76
2022/01/05 05:14:17;;;;;;;;;;;;;;;6.76;100.00;98172.23;1658033;86;20572;-81
2022/01/05 05:16:43;;;;;;;;;;;;;;;6.81;100.00;98170.68;1650854;86;20209;-75
2022/01/05 05:19:08;;;;;;;;;;;;;;;6.86;100.00;98165.40;1654714;86;20161;-76
2022/01/05 05:21:34;;;;;;;;;;;;;;;6.88;100.00;98166.02;1653532;85;20146;-76
2022/01/05 05:23:59;;;;;;;;;;;;;;;6.92;100.00;98165.98;1655599;86;21096;-77
2022/01/05 05:26:25;;;;;;;;;;;;;;;6.93;100.00;98176.78;1654330;86;20186;-77
2022/01/05 05:28:51;;;;;;;;;;;;;;;6.90;100.00;98183.70;1649521;86;20469;-76
2022/01/05 05:31:16;;;;;;;;;;;;;;;6.97;100.00;98193.80;1665210;84;21151;-76
2022/01/05 05:33:42;;;;;;;;;;;;;;;6.85;100.00;98212.30;1656685;85;20157;-79
2022/01/05 05:36:07;;;;;;;;;;;;;;;6.79;100.00;98215.13;1656928;85;21169;-76
2022/01/05 05:38:33;;;;;;;;;;;;;;;6.69;100.00;98219.34;1666546;85;20183;-75
2022/01/05 05:40:59;;;;;;;;;;;;;;;6.79;100.00;98222.52;1665717;84;20232;-79
2022/01/05 05:43:25;;;;;;;;;;;;;;;6.94;100.00;98219.09;1669056;85;20220;-76
2022/01/05 05:45:51;;;;;;;;;;;;;;;6.76;100.00;98225.51;1654616;85;20172;-76
2022/01/05 05:48:16;;;;;;;;;;;;;;;6.68;100.00;98224.76;1659743;85;21184;-76
2022/01/05 05:50:42;;;;;;;;;;;;;;;6.64;100.00;98232.18;1669757;85;20164;-80
2022/01/05 05:53:07;;;;;;;;;;;;;;;6.63;100.00;98241.03;1660437;85;20172;-76
2022/01/05 05:55:33;;;;;;;;;;;;;;;6.69;100.00;98240.32;1673663;85;20203;-76
2022/01/05 05:57:59;;;;;;;;;;;;;;;6.70;100.00;98244.58;1674804;85;20146;-77
2022/01/05 06:00:25;;;;;;;;;;;;;;;6.59;100.00;98240.58;1654611;85;21288;-76
2022/01/05 06:02:50;;;;;;;;;;;;;;;6.62;100.00;98242.84;1659764;85;20297;-76
2022/01/05 06:05:16;;;;;;;;;;;;;;;6.62;100.00;98237.60;1666798;85;20206;-76
2022/01/05 06:07:42;;;;;;;;;;;;;;;6.70;100.00;98239.84;1663685;85;20125;-76
2022/01/05 06:10:08;;;;;;;;;;;;;;;6.74;100.00;98246.34;1665588;85;20143;-79
2022/01/05 06:12:33;;;;;;;;;;;;;;;6.68;100.00;98243.95;1659392;85;21109;-76
2022/01/05 06:14:59;;;;;;;;;;;;;;;6.54;100.00;98247.34;1669555;85;20518;-76
2022/01/05 06:17:26;;;;;;;;;;;;;;;6.52;100.00;98247.52;1670296;85;20135;-76
2022/01/05 06:19:52;;;;;;;;;;;;;;;6.53;100.00;98253.59;1674994;85;20156;-77
2022/01/05 06:22:18;;;;;;;;;;;;;;;6.49;100.00;98262.80;1662230;85;20206;-76
2022/01/05 06:24:44;;;;;;;;;;;;;;;6.51;100.00;98255.56;1662998;84;21376;-76
2022/01/05 06:27:11;;;;;;;;;;;;;;;6.46;100.00;98261.33;1662334;84;20130;-80
2022/01/05 06:29:37;;;;;;;;;;;;;;;6.57;100.00;98262.72;1665816;85;20230;-75
2022/01/05 06:32:03;;;;;;;;;;;;;;;6.61;100.00;98281.86;1676713;85;20179;-76
2022/01/05 06:34:29;;;;;;;;;;;;;;;6.51;100.00;98284.41;1687246;85;20204;-75
2022/01/05 06:36:55;;;;;;;;;;;;;;;6.53;100.00;98275.88;1685150;85;21153;-77
2022/01/05 06:39:20;;;;;;;;;;;;;;;6.50;100.00;98284.10;1682377;85;20175;-72
2022/01/05 06:41:46;;;;;;;;;;;;;;;6.46;100.00;98284.93;1672943;85;20664;-75
2022/01/05 06:44:12;;;;;;;;;;;;;;;6.42;100.00;98284.47;1674739;85;20168;-76
2022/01/05 06:46:37;;;;;;;;;;;;;;;6.45;100.00;98290.67;1680982;85;20473;-77
2022/01/05 06:49:03;;;;;;;;;;;;;;;6.33;100.00;98288.65;1686533;85;21016;-75
2022/01/05 06:51:28;;;;;;;;;;;;;;;6.39;100.00;98286.13;1680062;85;20769;-76
2022/01/05 06:53:54;;;;;;;;;;;;;;;6.36;100.00;98294.86;1683854;84;20231;-76
2022/01/05 06:56:20;;;;;;;;;;;;;;;6.47;100.00;98287.38;1669405;85;20472;-78
2022/01/05 06:58:45;;;;;;;;;;;;;;;6.53;100.00;98283.24;1672984;83;20195;-74
2022/01/05 07:01:11;;;;;;;;;;;;;;;6.59;100.00;98283.05;1667217;85;21110;-78
2022/01/05 07:03:37;;;;;;;;;;;;;;;6.57;100.00;98288.95;1671391;85;20182;-77
2022/01/05 07:06:03;;;;;;;;;;;;;;;6.57;100.00;98291.56;1676587;85;20543;-77
2022/01/05 07:08:29;;;;;;;;;;;;;;;6.52;100.00;98295.22;1673901;84;20709;-76
2022/01/05 07:10:54;;;;;;;;;;;;;;;6.48;100.00;98303.94;1670183;85;20214;-76
2022/01/05 07:13:20;;;;;;;;;;;;;;;6.56;100.00;98317.48;1676277;85;20530;-77
2022/01/05 07:15:46;;;;;;;;;;;;;;;6.53;100.00;98307.35;1669882;85;20166;-80
2022/01/05 07:18:11;;;;;;;;;;;;;;;6.64;100.00;98285.95;1675489;85;20173;-76
2022/01/05 07:20:37;;;;;;;;;;;;;;;6.75;100.00;98273.70;1674957;85;20149;-76
2022/01/05 07:23:03;;;;;;;;;;;;;;;6.79;100.00;98277.61;1675206;85;20171;-77
2022/01/05 07:25:28;;;;;;;;;;;;;;;6.79;100.00;98292.05;1676847;84;21022;-77
2022/01/05 07:27:54;;;;;;;;;;;;;;;6.77;100.00;98287.45;1670782;85;20490;-75
2022/01/05 07:30:19;;;;;;;;;;;;;;;6.62;100.00;98293.19;1684306;83;20207;-76
2022/01/05 07:32:45;;;;;;;;;;;;;;;6.64;100.00;98290.69;1711081;83;20172;-75
2022/01/05 07:35:10;;;;;;;;;;;;;;;6.68;100.00;98283.30;1704192;83;20145;-77
2022/01/05 07:37:36;;;;;;;;;;;;;;;6.62;100.00;98289.25;1708133;83;21067;-78
2022/01/05 07:40:02;;;;;;;;;;;;;;;6.77;100.00;98290.58;1709775;83;20116;-78
2022/01/05 07:42:33;;;;;;;;;;;;;;;6.80;100.00;98297.59;1700167;83;20235;-81
2022/01/05 07:44:57;;;;;;;;;;;;;;;6.93;100.00;98290.92;1705060;83;20468;-75
2022/01/05 07:47:22;;;;;;;;;;;;;;;7.04;100.00;98290.50;1709667;83;20603;-75
2022/01/05 07:49:48;;;;;;;;;;;;;;;7.09;100.00;98290.77;1715433;83;21152;-75
2022/01/05 07:52:13;;;;;;;;;;;;;;;7.09;100.00;98280.27;1703124;83;20223;-75
2022/01/05 07:54:39;;;;;;;;;;;;;;;7.13;100.00;98278.93;1695894;83;20569;-76
2022/01/05 07:57:05;;;;;;;;;;;;;;;7.16;100.00;98275.94;1703965;83;20824;-75
2022/01/05 07:59:31;;;;;;;;;;;;;;;7.22;100.00;98272.27;1710419;83;20310;-74
2022/01/05 08:01:56;;;;;;;;;;;;;;;7.25;100.00;98273.22;1702489;82;21158;-75
2022/01/05 08:04:22;;;;;;;;;;;;;;;7.34;100.00;98278.70;1708972;83;20178;-75
2022/01/05 08:06:47;;;;;;;;;;;;;;;7.41;100.00;98286.66;1712705;83;20143;-77
2022/01/05 08:09:13;;;;;;;;;;;;;;;7.45;100.00;98278.73;1696055;83;20130;-74
2022/01/05 08:11:39;;;;;;;;;;;;;;;7.49;100.00;98280.82;1712203;83;20472;-79
2022/01/05 08:14:04;;;;;;;;;;;;;;;7.47;100.00;98278.05;1704113;83;21107;-79
2022/01/05 08:16:30;;;;;;;;;;;;;;;7.55;100.00;98274.00;1707801;83;20134;-74
2022/01/05 08:18:55;;;;;;;;;;;;;;;7.50;100.00;98270.64;1709493;83;20424;-74
2022/01/05 08:21:22;;;;;;;;;;;;;;;7.59;100.00;98273.16;1721590;82;20587;-75
2022/01/05 08:23:48;;;;;;;;;;;;;;;7.65;100.00;98278.99;1703742;82;20139;-77
2022/01/05 08:26:14;;;;;;;;;;;;;;;7.66;100.00;98280.60;1705317;83;21063;-75
2022/01/05 08:28:39;;;;;;;;;;;;;;;7.78;100.00;98281.77;1700817;83;20321;-78
2022/01/05 08:31:05;;;;;;;;;;;;;;;7.77;100.00;98281.95;1699558;82;20164;-73
2022/01/05 08:33:30;;;;;;;;;;;;;;;7.85;100.00;98283.17;1689205;83;20200;-73
2022/01/05 08:35:56;;;;;;;;;;;;;;;7.88;100.00;98281.48;1681358;83;20181;-77
2022/01/05 08:38:22;;;;;;;;;;;;;;;7.86;100.00;98276.42;1698689;83;21145;-76
2022/01/05 08:40:49;;;;;;;;;;;;;;;7.91;100.00;98275.87;1698255;83;20208;-76
2022/01/05 08:43:15;;;;;;;;;;;;;;;7.84;100.00;98270.52;1688649;83;20212;-80
2022/01/05 08:45:42;;;;;;;;;;;;;;;7.68;100.00;98272.06;1693703;83;20170;-76
2022/01/05 08:48:08;;;;;;;;;;;;;;;7.53;100.00;98268.93;1692256;83;20148;-76
2022/01/05 08:50:34;;;;;;;;;;;;;;;7.59;100.00;98275.78;1700690;83;21773;-74
2022/01/05 08:53:00;;;;;;;;;;;;;;;7.72;100.00;98275.93;1693857;83;21138;-75
2022/01/05 08:55:29;;;;;;;;;;;;;;;7.70;100.00;98279.25;1694642;83;20272;-74
2022/01/05 08:57:55;;;;;;;;;;;;;;;7.59;100.00;98272.65;1690797;83;20277;-76
2022/01/05 09:00:20;;;;;;;;;;;;;;;7.66;100.00;98278.81;1692952;83;20233;-75
2022/01/05 09:02:46;;;;;;;;;;;;;;;7.71;100.00;98282.20;1694294;83;22007;-75
2022/01/05 09:05:13;;;;;;;;;;;;;;;7.70;100.00;98280.56;1695316;83;20254;-79
2022/01/05 09:07:38;;;;;;;;;;;;;;;7.75;100.00;98290.02;1702763;83;20184;-76
2022/01/05 09:10:06;;;;;;;;;;;;;;;7.79;100.00;98289.16;1695012;83;20210;-75
2022/01/05 09:12:32;;;;;;;;;;;;;;;7.74;100.00;98289.72;1685227;83;20212;-75
2022/01/05 09:14:58;;;;;;;;;;;;;;;7.63;100.00;98284.91;1700283;83;21330;-75
2022/01/05 09:17:25;;;;;;;;;;;;;;;7.67;100.00;98287.50;1691302;83;20553;-74
2022/01/05 09:19:51;;;;;;;;;;;;;;;7.77;100.00;98293.29;1690881;83;20208;-78
2022/01/05 09:22:16;;;;;;;;;;;;;;;7.72;100.00;98287.75;1692265;83;20191;-74
2022/01/05 09:24:42;;;;;;;;;;;;;;;7.69;100.00;98281.07;1689344;83;20226;-75
2022/01/05 09:27:07;;;;;;;;;;;;;;;7.54;100.00;98274.52;1703215;83;21188;-75
2022/01/05 09:29:33;;;;;;;;;;;;;;;7.67;100.00;98278.30;1691209;83;20141;-75
2022/01/05 09:32:06;;;;;;;;;;;;;;;7.52;100.00;98272.58;1696666;83;20222;-78
2022/01/05 09:34:27;;;;;;;;;;;;;;;7.63;100.00;98275.72;1701555;83;20167;-74
2022/01/05 09:36:58;;;;;;;;;;;;;;;7.62;100.00;98271.48;1699058;83;20226;-74
2022/01/05 09:42:07;;;;;;;;;;;;;;;7.45;100.00;98270.36;1699275;83;20205;-75
2022/01/05 09:44:33;;;;;;;;;;;;;;;7.36;100.00;98281.47;1699029;83;20156;-75
2022/01/05 09:47:25;;;;;;;;;;;;;;;7.37;100.00;98273.08;1689339;83;20220;-74
2022/01/05 09:49:59;;;;;;;;;;;;;;;7.36;100.00;98279.32;1701056;83;20196;-74
2022/01/05 09:52:25;;;;;;;;;;;;;;;7.45;100.00;98277.43;1710942;83;21174;-75
2022/01/05 09:54:51;;;;;;;;;;;;;;;7.62;100.00;98278.05;1696958;83;20136;-74
2022/01/05 09:57:19;;;;;;;;;;;;;;;7.54;100.00;98281.08;1689937;83;20222;-76
2022/01/05 09:59:45;;;;;;;;;;;;;;;7.47;100.00;98279.36;1700485;83;21002;-75
2022/01/05 10:02:11;;;;;;;;;;;;;;;7.59;100.00;98287.61;1694226;83;20186;-79
2022/01/05 10:04:37;;;;;;;;;;;;;;;7.43;100.00;98276.30;1705247;83;21178;-74
2022/01/05 10:07:03;;;;;;;;;;;;;;;7.62;100.00;98282.80;1703196;83;20250;-74
2022/01/05 10:09:29;;;;;;;;;;;;;;;7.75;100.00;98287.38;1703741;83;20244;-74
2022/01/05 10:11:55;;;;;;;;;;;;;;;7.68;100.00;98283.88;1693780;83;21465;-75
2022/01/05 10:14:20;;;;;;;;;;;;;;;7.75;100.00;98285.27;1696126;83;20156;-75
2022/01/05 10:17:06;;;;;;;;;;;;;;;7.73;100.00;98284.13;1693559;83;21153;-77
2022/01/05 10:19:32;;;;;;;;;;;;;;;7.55;100.00;98278.78;1686468;83;20251;-75
2022/01/05 10:21:58;;;;;;;;;;;;;;;7.60;100.00;98287.91;1694771;83;20381;-75
2022/01/05 10:24:42;;;;;;;;;;;;;;;7.39;100.00;98289.47;1696832;83;20129;-75
2022/01/05 10:27:10;;;;;;;;;;;;;;;7.65;100.00;98286.87;1700603;83;20179;-77
2022/01/05 10:29:36;;;;;;;;;;;;;;;7.71;100.00;98286.95;1688461;83;21076;-75
2022/01/05 10:32:04;;;;;;;;;;;;;;;7.73;100.00;98281.51;1687383;83;20237;-77
2022/01/05 10:34:31;;;;;;;;;;;;;;;7.67;100.00;98276.98;1671678;83;20176;-76
2022/01/05 10:36:59;;;;;;;;;;;;;;;7.54;100.00;98275.83;1691257;83;20742;-78
2022/01/05 10:39:29;;;;;;;;;;;;;;;7.39;100.00;98265.83;1694479;83;20203;-77
2022/01/05 10:41:56;;;;;;;;;;;;;;;7.59;100.00;98272.65;1695182;83;39179;-75
2022/01/05 10:44:23;;;;;;;;;;;;;;;7.51;100.00;98263.06;1692825;83;20188;-74
2022/01/05 10:46:53;;;;;;;;;;;;;;;7.62;100.00;98267.54;1692182;83;20504;-75
2022/01/05 10:49:26;;;;;;;;;;;;;;;7.67;100.00;98269.91;1693901;83;20145;-75
2022/01/05 10:51:51;;;;;;;;;;;;;;;7.76;100.00;98266.69;1695850;83;20589;-79
2022/01/05 10:54:18;;;;;;;;;;;;;;;7.86;100.00;98275.11;1688316;83;21130;-75
2022/01/05 10:56:45;;;;;;;;;;;;;;;7.98;100.00;98262.78;1689179;83;20265;-78
2022/01/05 10:59:13;;;;;;;;;;;;;;;8.02;100.00;98269.31;1689502;83;20298;-76
2022/01/05 11:01:41;;;;;;;;;;;;;;;7.87;100.00;98268.83;1687938;83;20252;-78
2022/01/05 11:04:18;;;;;;;;;;;;;;;7.97;100.00;98266.41;1693601;83;20956;-74
2022/01/05 11:07:02;;;;;;;;;;;;;;;7.93;100.00;98249.40;1690059;83;21092;-75
2022/01/05 11:09:27;;;;;;;;;;;;;;;7.98;100.00;98258.84;1691177;83;20210;-75
2022/01/05 11:11:53;;;;;;;;;;;;;;;7.94;100.00;98266.77;1689163;83;20203;-74
2022/01/05 11:14:30;;;;;;;;;;;;;;;8.03;100.00;98255.15;1690124;83;20191;-79
2022/01/05 11:16:57;;;;;;;;;;;;;;;8.10;100.00;98263.93;1690341;83;20175;-79
2022/01/05 11:19:27;;;;;;;;;;;;;;;8.23;100.00;98257.98;1694312;83;21194;-77
2022/01/05 11:22:05;;;;;;;;;;;;;;;8.17;100.00;98250.84;1691694;83;20126;-77
2022/01/05 11:24:37;;;;;;;;;;;;;;;8.19;100.00;98236.52;1687421;83;20166;-76
2022/01/05 11:27:03;;;;;;;;;;;;;;;8.35;100.00;98234.63;1697282;83;20180;-74
2022/01/05 11:29:29;;;;;;;;;;;;;;;8.42;100.00;98238.11;1688493;83;20181;-75
2022/01/05 11:31:57;;;;;;;;;;;;;;;8.49;100.00;98237.70;1689805;83;21177;-74
2022/01/05 11:34:22;;;;;;;;;;;;;;;8.44;100.00;98238.27;1682789;83;20164;-75
2022/01/05 11:36:48;;;;;;;;;;;;;;;8.55;100.00;98248.79;1690326;83;20754;-72
2022/01/05 11:39:14;;;;;;;;;;;;;;;8.56;100.00;98245.16;1688215;83;20131;-74
2022/01/05 11:41:44;;;;;;;;;;;;;;;8.54;99.93;98247.15;1685991;83;20196;-75
2022/01/05 11:44:10;;;;;;;;;;;;;;;8.66;100.00;98241.39;1679847;83;21245;-75
2022/01/05 11:46:36;;;;;;;;;;;;;;;8.49;99.88;98246.11;1683434;83;20671;-74
2022/01/05 11:49:10;;;;;;;;;;;;;;;8.49;100.00;98248.23;1691377;83;20202;-76
2022/01/05 11:51:46;;;;;;;;;;;;;;;8.54;100.00;98241.89;1675912;83;20845;-73
2022/01/05 11:54:20;;;;;;;;;;;;;;;8.38;100.00;98239.52;1679727;83;20219;-74
2022/01/05 11:56:48;;;;;;;;;;;;;;;8.19;100.00;98223.37;1670518;83;21334;-73
2022/01/05 11:59:33;;;;;;;;;;;;;;;8.22;100.00;98219.05;1684967;83;20484;-74
2022/01/05 12:02:03;;;;;;;;;;;;;;;8.24;100.00;98232.81;1684216;83;20513;-74
2022/01/05 12:04:29;;;;;;;;;;;;;;;8.14;100.00;98231.02;1682165;83;20199;-73
2022/01/05 12:07:01;;;;;;;;;;;;;;;8.00;100.00;98229.23;1681204;83;20235;-76
2022/01/05 12:09:29;;;;;;;;;;;;;;;8.06;100.00;98228.48;1682827;83;21157;-75
2022/01/05 12:11:55;;;;;;;;;;;;;;;8.17;100.00;98221.44;1679892;83;20152;-74
2022/01/05 12:14:25;;;;;;;;;;;;;;;8.21;100.00;98226.61;1684763;83;20197;-74
2022/01/05 12:17:06;;;;;;;;;;;;;;;8.09;100.00;98232.06;1691751;83;20209;-76
2022/01/05 12:19:50;;;;;;;;;;;;;;;8.08;100.00;98229.94;1678857;83;20187;-74
2022/01/05 12:22:21;;;;;;;;;;;;;;;7.80;100.00;98229.86;1681755;83;21010;-78
2022/01/05 12:25:00;;;;;;;;;;;;;;;7.83;100.00;98221.61;1680045;83;20678;-75
2022/01/05 12:27:37;;;;;;;;;;;;;;;7.43;100.00;98227.72;1686264;83;20200;-76
2022/01/05 12:30:19;;;;;;;;;;;;;;;7.29;100.00;98215.42;1687428;83;20985;-75
2022/01/05 12:32:46;;;;;;;;;;;;;;;7.43;100.00;98214.59;1688294;83;20188;-74
2022/01/05 12:35:18;;;;;;;;;;;;;;;7.45;100.00;98200.77;1694841;83;21288;-76
2022/01/05 12:37:50;;;;;;;;;;;;;;;7.54;100.00;98200.97;1689595;83;20152;-74
2022/01/05 12:40:28;;;;;;;;;;;;;;;7.37;100.00;98190.38;1682767;83;20203;-75
2022/01/05 12:43:09;;;;;;;;;;;;;;;7.24;100.00;98191.03;1688107;83;20203;-77
2022/01/05 12:45:57;;;;;;;;;;;;;;;7.34;100.00;98188.11;1691742;83;20189;-74
2022/01/05 12:48:36;;;;;;;;;;;;;;;7.40;100.00;98187.37;1686310;83;23127;-74